Time;durP1;ratioP1;P1;durP2;ratioP2;P2;SDS_P1;SDS_P2;PMS_P1;PMS_P2;Temp;Humidity;BMP_temperature;BMP_pressure;BME280_temperature;BME280_humidity;BME280_pressure;Samples;Min_cycle;Max_cycle;Signal;HPM_P1;HPM_P2
2021/12/20 00:01:53;;;;;;;18.77;10.35;;;5.50;75.10;;;;;;5130634;27;20027;-72
2021/12/20 00:04:19;;;;;;;18.80;10.60;;;5.50;75.00;;;;;;5117664;27;20041;-72
2021/12/20 00:06:44;;;;;;;17.40;9.68;;;5.50;75.10;;;;;;5134818;27;20042;-73
2021/12/20 00:09:10;;;;;;;16.75;9.80;;;5.50;75.00;;;;;;5135555;27;20475;-73
2021/12/20 00:11:36;;;;;;;18.83;10.20;;;5.50;75.00;;;;;;5117180;27;20019;-72
2021/12/20 00:14:02;;;;;;;18.20;10.10;;;5.40;75.00;;;;;;5135701;27;20092;-71
2021/12/20 00:16:27;;;;;;;17.13;9.45;;;5.50;75.10;;;;;;5117154;27;20463;-72
2021/12/20 00:18:53;;;;;;;18.75;10.73;;;5.40;75.00;;;;;;5117269;27;20023;-72
2021/12/20 00:21:19;;;;;;;21.33;11.18;;;5.40;75.10;;;;;;5116214;27;20528;-72
2021/12/20 00:23:44;;;;;;;18.98;10.38;;;5.50;75.30;;;;;;5132679;27;20390;-71
2021/12/20 00:26:10;;;;;;;15.93;9.52;;;5.40;75.20;;;;;;5135158;27;20113;-71
2021/12/20 00:28:37;;;;;;;15.80;9.07;;;5.50;75.20;;;;;;5134605;27;20047;-72
2021/12/20 00:31:03;;;;;;;17.00;9.88;;;5.50;75.20;;;;;;5136126;27;20459;-73
2021/12/20 00:33:33;;;;;;;17.77;9.98;;;5.40;75.10;;;;;;5122549;27;20076;-72
2021/12/20 00:36:00;;;;;;;18.55;10.30;;;5.50;75.20;;;;;;5116996;27;20032;-73
2021/12/20 00:41:10;;;;;;;17.52;9.80;;;5.40;75.10;;;;;;5129637;27;20061;-72
2021/12/20 00:43:36;;;;;;;17.95;9.35;;;5.40;75.10;;;;;;5118299;27;20058;-72
2021/12/20 00:46:01;;;;;;;18.42;10.23;;;5.50;75.30;;;;;;5135690;27;20437;-72
2021/12/20 00:48:28;;;;;;;20.52;10.82;;;5.50;75.30;;;;;;5116364;27;20019;-73
2021/12/20 00:50:53;;;;;;;15.80;10.05;;;5.50;75.40;;;;;;5134257;27;20095;-72
2021/12/20 00:53:19;;;;;;;16.23;9.68;;;5.50;75.40;;;;;;5134635;27;20102;-72
2021/12/20 00:55:45;;;;;;;20.90;10.88;;;5.50;75.40;;;;;;5134749;27;20057;-72
2021/12/20 00:58:10;;;;;;;17.23;10.25;;;5.50;75.30;;;;;;5135753;27;20033;-72
2021/12/20 01:00:41;;;;;;;14.55;9.48;;;5.60;75.30;;;;;;5134812;27;20027;-73
2021/12/20 01:03:08;;;;;;;17.30;10.30;;;5.60;75.20;;;;;;5119665;27;20383;-72
2021/12/20 01:05:34;;;;;;;16.42;9.70;;;5.60;75.20;;;;;;5135312;27;20467;-72
2021/12/20 01:08:03;;;;;;;14.50;9.05;;;5.60;75.30;;;;;;5134274;27;20031;-72
2021/12/20 01:10:30;;;;;;;16.00;8.90;;;5.60;75.30;;;;;;5133534;27;20023;-72
2021/12/20 01:12:59;;;;;;;15.65;9.20;;;5.60;75.20;;;;;;5133923;27;20027;-72
2021/12/20 01:15:40;;;;;;;15.05;8.90;;;5.60;75.00;;;;;;5135407;27;20020;-73
2021/12/20 01:18:07;;;;;;;13.13;8.52;;;5.70;75.70;;;;;;5133269;27;20015;-73
2021/12/20 01:20:35;;;;;;;13.52;8.55;;;5.70;75.00;;;;;;5101155;27;20053;-72
2021/12/20 01:23:00;;;;;;;15.75;9.27;;;5.70;75.00;;;;;;5114814;27;20027;-72
2021/12/20 01:25:26;;;;;;;15.13;9.10;;;5.70;75.00;;;;;;5134598;27;20471;-72
2021/12/20 01:27:53;;;;;;;14.77;9.25;;;5.80;75.10;;;;;;5132312;27;20031;-71
2021/12/20 01:30:22;;;;;;;11.95;7.68;;;5.70;74.90;;;;;;5124655;27;20019;-72
2021/12/20 01:32:48;;;;;;;13.23;8.80;;;5.70;74.70;;;;;;5128931;27;20031;-72
2021/12/20 01:35:15;;;;;;;13.55;9.18;;;5.70;74.60;;;;;;5132321;27;20031;-73
2021/12/20 01:37:41;;;;;;;13.60;8.52;;;5.70;74.50;;;;;;5134443;27;20019;-73
2021/12/20 01:40:10;;;;;;;12.88;8.23;;;5.70;74.50;;;;;;5133671;27;20077;-73
2021/12/20 01:42:36;;;;;;;13.48;8.27;;;5.70;74.50;;;;;;5134251;27;20031;-72
2021/12/20 01:45:15;;;;;;;15.32;8.90;;;5.70;74.50;;;;;;5114747;27;20111;-72
2021/12/20 01:47:45;;;;;;;13.63;8.70;;;5.60;74.60;;;;;;5133873;27;20058;-72
2021/12/20 01:53:00;;;;;;;15.48;9.23;;;5.60;74.80;;;;;;5109785;27;20433;-72
2021/12/20 01:55:26;;;;;;;14.95;8.13;;;5.70;74.70;;;;;;5112951;27;20026;-72
2021/12/20 01:57:51;;;;;;;14.48;8.95;;;5.60;74.70;;;;;;5132356;27;20053;-72
2021/12/20 02:00:24;;;;;;;16.33;9.15;;;5.60;74.60;;;;;;5118768;27;20046;-73
2021/12/20 02:02:58;;;;;;;11.38;7.50;;;5.60;74.60;;;;;;5129227;27;20088;-72
2021/12/20 02:05:45;;;;;;;14.13;7.50;;;5.60;74.50;;;;;;5107185;27;20035;-72
2021/12/20 02:08:20;;;;;;;13.40;8.20;;;5.60;74.40;;;;;;5118803;27;20076;-73
2021/12/20 02:10:47;;;;;;;11.52;7.57;;;5.60;74.50;;;;;;5133369;27;20440;-72
2021/12/20 02:13:14;;;;;;;12.38;7.65;;;5.50;74.60;;;;;;5133187;27;20038;-73
2021/12/20 02:15:40;;;;;;;12.98;7.60;;;5.50;74.60;;;;;;5133469;27;20026;-73
2021/12/20 02:18:05;;;;;;;13.07;8.05;;;5.50;74.60;;;;;;5116794;27;20117;-73
2021/12/20 02:20:33;;;;;;;12.15;7.82;;;5.50;74.60;;;;;;5133124;27;20076;-73
2021/12/20 02:23:00;;;;;;;10.13;6.47;;;5.50;74.70;;;;;;5128599;27;20024;-73
2021/12/20 02:25:28;;;;;;;13.57;7.45;;;5.50;74.70;;;;;;5128922;27;20139;-73
2021/12/20 02:27:54;;;;;;;12.55;7.60;;;5.50;74.70;;;;;;5132205;27;20110;-73
2021/12/20 02:38:19;;;;;;;11.63;7.30;;;5.50;75.00;;;;;;5132019;27;20132;-72
2021/12/20 02:40:46;;;;;;;12.93;7.88;;;5.50;75.00;;;;;;5133213;27;20528;-73
2021/12/20 02:43:16;;;;;;;12.25;7.63;;;5.50;75.10;;;;;;5129932;27;20113;-72
2021/12/20 02:45:42;;;;;;;12.40;8.05;;;5.60;75.00;;;;;;5130559;27;20038;-72
2021/12/20 02:48:08;;;;;;;12.75;7.90;;;5.60;75.10;;;;;;5131829;27;20080;-73
2021/12/20 02:50:34;;;;;;;12.48;7.85;;;5.60;75.00;;;;;;5132718;27;20031;-72
2021/12/20 02:53:00;;;;;;;11.13;7.50;;;5.60;74.90;;;;;;5114326;28;20053;-73
2021/12/20 02:55:25;;;;;;;11.32;7.35;;;5.60;75.00;;;;;;5133548;28;20019;-73
2021/12/20 02:57:51;;;;;;;12.13;7.50;;;5.60;75.00;;;;;;5132032;28;20023;-73
2021/12/20 03:00:17;;;;;;;10.50;6.80;;;5.60;75.00;;;;;;5130703;28;20055;-71
2021/12/20 03:02:43;;;;;;;10.90;7.28;;;5.60;75.00;;;;;;5133783;27;20035;-72
2021/12/20 03:05:11;;;;;;;11.57;7.32;;;5.70;75.10;;;;;;5114763;28;20042;-73
2021/12/20 03:07:46;;;;;;;10.90;7.15;;;5.60;74.90;;;;;;5133316;28;20093;-73
2021/12/20 03:10:14;;;;;;;11.77;7.28;;;5.70;75.00;;;;;;5131246;28;20019;-72
2021/12/20 03:12:39;;;;;;;9.65;6.60;;;5.70;74.90;;;;;;5130012;28;20023;-71
2021/12/20 03:15:13;;;;;;;10.68;7.25;;;5.70;74.90;;;;;;5125967;28;20381;-72
2021/12/20 03:17:39;;;;;;;11.67;7.70;;;5.70;74.90;;;;;;5132117;27;20387;-72
2021/12/20 03:20:06;;;;;;;9.75;6.63;;;5.70;74.80;;;;;;5132045;27;20284;-73
2021/12/20 03:22:32;;;;;;;10.68;6.65;;;5.70;74.80;;;;;;5132631;28;20027;-73
2021/12/20 03:24:58;;;;;;;12.30;6.85;;;5.70;74.70;;;;;;5133768;28;20433;-73
2021/12/20 03:27:24;;;;;;;27.85;12.68;;;5.70;74.60;;;;;;5118223;28;20080;-73
2021/12/20 03:29:49;;;;;;;25.23;11.73;;;5.70;74.50;;;;;;5108872;28;20104;-72
2021/12/20 03:32:15;;;;;;;16.60;8.65;;;5.70;74.50;;;;;;5114047;27;20026;-72
2021/12/20 03:34:41;;;;;;;13.18;7.10;;;5.70;74.50;;;;;;5132948;28;20023;-72
2021/12/20 03:37:07;;;;;;;12.00;7.88;;;5.70;74.60;;;;;;5131273;28;20024;-73
2021/12/20 03:39:32;;;;;;;11.43;7.07;;;5.70;74.60;;;;;;5114125;28;20076;-73
2021/12/20 03:41:59;;;;;;;9.90;6.63;;;5.70;74.60;;;;;;5113539;28;20035;-72
2021/12/20 03:44:25;;;;;;;10.25;6.70;;;5.70;74.70;;;;;;5117366;28;20049;-72
2021/12/20 03:46:51;;;;;;;13.95;8.05;;;5.70;74.60;;;;;;5098715;28;20047;-73
2021/12/20 03:49:16;;;;;;;13.85;7.45;;;5.70;74.50;;;;;;5125553;28;20093;-73
2021/12/20 03:51:42;;;;;;;14.07;7.53;;;5.70;74.50;;;;;;5125219;28;20028;-72
2021/12/20 03:54:08;;;;;;;14.50;7.80;;;5.70;74.40;;;;;;5127972;27;20019;-72
2021/12/20 03:56:34;;;;;;;11.88;7.07;;;5.70;74.50;;;;;;5133112;28;20472;-72
2021/12/20 03:59:01;;;;;;;11.55;6.20;;;5.70;74.50;;;;;;5139507;27;20031;-72
2021/12/20 04:01:27;;;;;;;9.82;6.72;;;5.70;74.60;;;;;;5116748;27;20031;-72
2021/12/20 04:03:53;;;;;;;10.15;6.90;;;5.70;74.60;;;;;;5130844;27;20020;-72
2021/12/20 04:06:18;;;;;;;10.68;7.25;;;5.60;74.50;;;;;;5136995;27;20019;-71
2021/12/20 04:08:46;;;;;;;11.75;7.00;;;5.60;74.60;;;;;;5134263;27;20045;-72
2021/12/20 04:11:11;;;;;;;11.48;6.80;;;5.70;74.70;;;;;;5135979;27;20035;-73
2021/12/20 04:13:37;;;;;;;9.23;6.03;;;5.60;74.60;;;;;;5134216;27;20200;-72
2021/12/20 04:16:03;;;;;;;9.98;6.60;;;5.60;74.60;;;;;;5135256;27;20031;-72
2021/12/20 04:18:30;;;;;;;9.10;6.28;;;5.70;74.70;;;;;;5114820;27;20112;-73
2021/12/20 04:20:56;;;;;;;10.25;6.45;;;5.60;74.60;;;;;;5126958;27;20020;-72
2021/12/20 04:23:22;;;;;;;9.88;6.28;;;5.70;74.50;;;;;;5136114;27;20049;-72
2021/12/20 04:25:48;;;;;;;12.10;6.82;;;5.60;74.40;;;;;;5129921;27;20106;-73
2021/12/20 04:28:14;;;;;;;12.60;6.13;;;5.60;74.20;;;;;;5127117;27;20043;-72
2021/12/20 04:30:39;;;;;;;11.70;7.10;;;5.60;74.20;;;;;;5118004;27;20030;-72
2021/12/20 04:33:05;;;;;;;14.55;7.60;;;5.50;74.10;;;;;;5134782;27;20088;-73
2021/12/20 04:35:31;;;;;;;15.07;8.55;;;5.50;74.90;;;;;;5134177;27;20050;-73
2021/12/20 04:38:00;;;;;;;12.93;7.70;;;5.40;74.20;;;;;;5136275;27;20040;-73
2021/12/20 04:40:27;;;;;;;14.45;7.47;;;5.40;74.20;;;;;;5118173;27;20438;-73
2021/12/20 04:42:55;;;;;;;13.23;8.15;;;5.30;74.30;;;;;;5127795;27;20080;-73
2021/12/20 04:45:22;;;;;;;15.48;8.43;;;5.30;74.40;;;;;;5126875;27;20403;-72
2021/12/20 04:47:48;;;;;;;13.85;7.85;;;5.20;74.50;;;;;;5135825;27;20083;-73
2021/12/20 04:50:15;;;;;;;12.25;7.45;;;5.20;74.50;;;;;;5124204;27;20036;-72
2021/12/20 04:52:41;;;;;;;13.43;6.90;;;5.20;74.60;;;;;;5080489;28;20560;-74
2021/12/20 04:55:09;;;;;;;9.85;6.72;;;5.10;74.80;;;;;;5132525;27;20387;-73
2021/12/20 04:57:35;;;;;;;9.00;6.43;;;5.10;75.10;;;;;;5135843;27;20087;-74
2021/12/20 05:00:01;;;;;;;9.18;5.95;;;5.10;75.20;;;;;;5133927;27;20110;-72
2021/12/20 05:02:26;;;;;;;8.07;5.90;;;5.10;75.30;;;;;;5134001;27;20102;-72
2021/12/20 05:04:52;;;;;;;11.13;7.55;;;5.10;75.50;;;;;;5133334;27;20027;-72
2021/12/20 05:07:18;;;;;;;12.90;7.40;;;5.10;75.70;;;;;;5135279;27;20035;-72
2021/12/20 05:09:43;;;;;;;11.23;7.32;;;5.20;75.80;;;;;;5123467;27;20069;-72
2021/12/20 05:12:14;;;;;;;9.40;6.57;;;5.20;75.70;;;;;;5133004;27;20065;-72
2021/12/20 05:14:42;;;;;;;9.95;6.57;;;5.20;75.70;;;;;;5120541;27;20023;-71
2021/12/20 05:17:10;;;;;;;8.57;6.35;;;5.30;75.50;;;;;;5132171;27;20372;-72
2021/12/20 05:19:36;;;;;;;9.75;6.78;;;5.30;75.50;;;;;;5130339;27;20482;-71
2021/12/20 05:22:01;;;;;;;10.73;6.78;;;5.30;75.50;;;;;;5115844;27;20114;-72
2021/12/20 05:24:27;;;;;;;11.52;7.15;;;5.30;75.70;;;;;;5127021;27;20490;-72
2021/12/20 05:26:53;;;;;;;11.63;6.90;;;5.30;75.70;;;;;;5135090;27;20506;-72
2021/12/20 05:29:18;;;;;;;10.27;6.75;;;5.40;75.70;;;;;;5120715;27;20054;-71
2021/12/20 05:31:44;;;;;;;10.75;7.03;;;5.40;75.60;;;;;;5111059;28;20020;-72
2021/12/20 05:34:10;;;;;;;10.43;6.88;;;5.40;76.20;;;;;;5115554;27;20118;-72
2021/12/20 05:36:35;;;;;;;11.07;6.65;;;5.40;75.50;;;;;;5129180;27;20426;-72
2021/12/20 05:39:02;;;;;;;10.63;6.60;;;5.50;75.50;;;;;;5120239;27;20578;-72
2021/12/20 05:41:28;;;;;;;10.20;6.78;;;5.50;75.50;;;;;;5133150;27;20033;-72
2021/12/20 05:43:53;;;;;;;10.65;6.93;;;5.50;75.40;;;;;;5131519;27;20023;-72
2021/12/20 05:46:20;;;;;;;10.95;7.57;;;5.50;75.40;;;;;;5133644;27;20106;-72
2021/12/20 05:48:45;;;;;;;12.27;7.35;;;5.50;75.40;;;;;;5116381;27;20031;-72
2021/12/20 05:51:11;;;;;;;11.52;7.28;;;5.60;75.40;;;;;;5128568;27;20428;-71
2021/12/20 05:53:37;;;;;;;10.50;7.25;;;5.60;75.40;;;;;;5128081;27;20079;-71
2021/12/20 05:56:02;;;;;;;10.43;6.95;;;5.60;75.40;;;;;;5133887;27;20023;-72
2021/12/20 05:58:28;;;;;;;12.18;7.82;;;5.60;75.30;;;;;;5113238;27;20384;-72
2021/12/20 06:00:54;;;;;;;12.70;7.60;;;5.60;75.20;;;;;;5120668;27;20031;-71
2021/12/20 06:03:19;;;;;;;12.82;7.75;;;5.60;75.20;;;;;;5130793;27;20092;-72
2021/12/20 06:05:45;;;;;;;12.48;7.38;;;5.70;75.20;;;;;;5126226;27;20035;-72
2021/12/20 06:08:11;;;;;;;11.15;7.43;;;5.70;75.20;;;;;;5118089;27;20024;-72
2021/12/20 06:10:37;;;;;;;13.63;7.53;;;5.70;75.10;;;;;;5130927;27;20027;-71
2021/12/20 06:13:03;;;;;;;13.13;8.38;;;5.70;75.10;;;;;;5129178;27;20027;-71
2021/12/20 06:15:29;;;;;;;12.15;7.88;;;5.70;75.10;;;;;;5125932;27;20547;-73
2021/12/20 06:17:55;;;;;;;12.57;8.07;;;5.70;75.00;;;;;;5124862;27;20028;-72
2021/12/20 06:20:21;;;;;;;11.07;6.88;;;5.70;74.90;;;;;;5130409;27;20034;-73
2021/12/20 06:22:47;;;;;;;15.73;8.65;;;5.70;74.90;;;;;;5123024;27;20062;-72
2021/12/20 06:25:12;;;;;;;15.30;9.18;;;5.80;74.90;;;;;;5121484;27;20062;-72
2021/12/20 06:27:39;;;;;;;15.20;8.63;;;5.80;74.90;;;;;;5130561;27;20068;-72
2021/12/20 06:30:08;;;;;;;14.20;8.13;;;5.80;74.90;;;;;;5133043;27;20440;-72
2021/12/20 06:32:35;;;;;;;14.35;8.20;;;5.80;74.90;;;;;;5132473;27;20042;-72
2021/12/20 06:35:01;;;;;;;13.52;8.55;;;5.80;74.80;;;;;;5124074;27;20031;-73
2021/12/20 06:37:27;;;;;;;13.45;8.60;;;5.80;74.80;;;;;;5131994;27;20023;-72
2021/12/20 06:39:53;;;;;;;15.00;8.77;;;5.80;74.80;;;;;;5114854;27;20023;-72
2021/12/20 06:42:18;;;;;;;13.30;8.32;;;5.80;74.80;;;;;;5131670;27;20023;-72
2021/12/20 06:44:44;;;;;;;12.98;8.25;;;5.80;74.70;;;;;;5131994;27;20467;-73
2021/12/20 06:47:10;;;;;;;13.13;8.38;;;5.80;74.60;;;;;;5132275;27;20129;-71
2021/12/20 06:49:36;;;;;;;14.35;8.85;;;5.80;74.50;;;;;;5131871;27;20023;-71
2021/12/20 06:52:03;;;;;;;15.88;9.38;;;5.70;74.50;;;;;;5115090;27;20019;-72
2021/12/20 06:54:29;;;;;;;16.25;9.70;;;5.70;74.60;;;;;;5124636;27;20023;-71
2021/12/20 06:56:55;;;;;;;14.75;8.70;;;5.70;74.70;;;;;;5120352;27;20176;-72
2021/12/20 06:59:20;;;;;;;15.40;9.00;;;5.70;74.80;;;;;;5124989;27;20106;-72
2021/12/20 07:01:46;;;;;;;13.45;8.18;;;5.70;74.80;;;;;;5131163;27;20023;-72
2021/12/20 07:04:12;;;;;;;14.85;8.68;;;5.70;74.90;;;;;;5125061;28;20375;-72
2021/12/20 07:06:38;;;;;;;14.07;8.90;;;5.70;74.90;;;;;;5125470;27;21661;-71
2021/12/20 07:09:06;;;;;;;13.68;8.50;;;5.70;74.90;;;;;;5132520;27;20027;-71
2021/12/20 07:11:31;;;;;;;14.52;8.77;;;5.70;74.80;;;;;;5131819;28;20035;-72
2021/12/20 07:13:57;;;;;;;12.82;8.48;;;5.70;74.80;;;;;;5122556;28;20016;-71
2021/12/20 07:16:23;;;;;;;16.10;9.07;;;5.70;74.80;;;;;;5117321;28;20114;-72
2021/12/20 07:18:49;;;;;;;17.33;9.70;;;5.70;74.70;;;;;;5131030;28;20020;-72
2021/12/20 07:21:15;;;;;;;16.98;9.57;;;5.70;74.70;;;;;;5132507;27;20107;-72
2021/12/20 07:23:40;;;;;;;17.88;9.50;;;5.70;75.40;;;;;;5130840;28;20122;-72
2021/12/20 07:26:09;;;;;;;18.63;10.52;;;5.70;74.70;;;;;;5114703;28;20534;-72
2021/12/20 07:28:35;;;;;;;14.48;9.02;;;5.70;74.60;;;;;;5111610;28;20151;-72
2021/12/20 07:31:01;;;;;;;15.90;8.93;;;5.70;74.50;;;;;;5133137;27;20404;-72
2021/12/20 07:33:27;;;;;;;15.80;9.02;;;5.60;74.50;;;;;;5133465;27;20062;-72
2021/12/20 07:35:52;;;;;;;16.58;9.25;;;5.60;74.60;;;;;;5116939;27;20035;-73
2021/12/20 07:38:19;;;;;;;16.90;10.52;;;5.60;74.80;;;;;;5125560;27;20019;-72
2021/12/20 07:40:46;;;;;;;12.43;8.02;;;5.50;74.90;;;;;;5136048;27;20053;-73
2021/12/20 07:43:14;;;;;;;13.00;7.55;;;5.60;75.10;;;;;;5117445;27;20015;-72
2021/12/20 07:45:41;;;;;;;14.00;8.25;;;5.60;75.20;;;;;;5118803;27;20034;-73
2021/12/20 07:48:07;;;;;;;13.20;7.75;;;5.60;75.20;;;;;;5126462;27;20024;-72
2021/12/20 07:50:33;;;;;;;11.88;7.30;;;5.60;75.20;;;;;;5122282;27;20063;-72
2021/12/20 07:52:59;;;;;;;14.65;7.43;;;5.60;75.20;;;;;;5136428;27;20035;-72
2021/12/20 07:55:26;;;;;;;12.65;8.02;;;5.60;75.20;;;;;;5135659;27;20019;-77
2021/12/20 07:57:53;;;;;;;13.48;7.88;;;5.70;75.30;;;;;;5124880;27;20526;-76
2021/12/20 08:00:19;;;;;;;15.32;8.40;;;5.70;75.30;;;;;;5116823;27;20080;-76
2021/12/20 08:02:46;;;;;;;14.35;8.13;;;5.70;75.30;;;;;;5125850;27;20015;-75
2021/12/20 08:05:18;;;;;;;13.65;8.27;;;5.70;75.30;;;;;;5128657;27;20041;-76
2021/12/20 08:07:45;;;;;;;14.18;8.52;;;5.80;75.40;;;;;;5115578;27;20046;-76
2021/12/20 08:10:11;;;;;;;17.75;9.80;;;5.80;75.40;;;;;;5108132;27;20473;-76
2021/12/20 08:12:37;;;;;;;19.20;9.65;;;5.90;75.40;;;;;;5144795;27;20046;-76
2021/12/20 08:15:04;;;;;;;16.45;9.48;;;5.90;75.30;;;;;;5113998;27;20655;-76
2021/12/20 08:17:31;;;;;;;16.58;9.48;;;6.00;75.30;;;;;;5108250;27;20043;-76
2021/12/20 08:19:58;;;;;;;16.55;9.10;;;6.00;75.20;;;;;;5133327;27;20029;-76
2021/12/20 08:22:25;;;;;;;15.95;9.32;;;6.00;75.20;;;;;;5123661;27;20027;-76
2021/12/20 08:24:51;;;;;;;19.02;9.07;;;6.00;75.10;;;;;;5124869;27;20063;-76
2021/12/20 08:27:17;;;;;;;14.90;8.32;;;6.10;75.00;;;;;;5127130;27;20445;-76
2021/12/20 08:29:43;;;;;;;13.55;8.02;;;6.10;75.10;;;;;;5120252;27;20036;-75
2021/12/20 08:32:09;;;;;;;18.75;9.02;;;6.20;75.00;;;;;;5115032;27;20027;-75
2021/12/20 08:34:34;;;;;;;19.20;9.63;;;6.20;75.00;;;;;;5114159;27;20084;-76
2021/12/20 08:37:03;;;;;;;16.85;9.13;;;6.30;75.00;;;;;;5129327;27;20057;-75
2021/12/20 08:39:30;;;;;;;19.02;9.48;;;6.20;74.80;;;;;;5121353;27;20113;-76
2021/12/20 08:41:57;;;;;;;18.98;8.80;;;6.30;74.90;;;;;;5113959;27;20027;-76
2021/12/20 08:44:24;;;;;;;18.23;9.90;;;6.30;74.80;;;;;;5134334;27;20027;-76
2021/12/20 08:46:50;;;;;;;19.25;9.75;;;6.40;74.70;;;;;;5120694;27;20096;-74
2021/12/20 08:49:16;;;;;;;16.55;9.75;;;6.40;74.70;;;;;;5104695;27;20035;-74
2021/12/20 08:51:42;;;;;;;17.50;10.30;;;6.50;74.80;;;;;;5097436;27;20020;-75
2021/12/20 08:54:08;;;;;;;19.73;9.60;;;6.50;74.80;;;;;;5130274;27;20541;-74
2021/12/20 08:56:34;;;;;;;18.80;10.05;;;6.50;74.70;;;;;;5138296;27;20075;-74
2021/12/20 08:59:00;;;;;;;20.77;10.35;;;6.50;74.50;;;;;;5129753;27;20383;-77
2021/12/20 09:01:26;;;;;;;24.65;10.02;;;6.60;74.50;;;;;;5129368;27;20031;-77
2021/12/20 09:03:52;;;;;;;18.23;9.38;;;6.60;74.30;;;;;;5127680;27;20027;-77
2021/12/20 09:06:21;;;;;;;18.02;9.50;;;6.60;74.30;;;;;;5115127;27;20038;-76
2021/12/20 09:08:48;;;;;;;21.70;10.25;;;6.70;74.30;;;;;;5106323;27;20027;-76
2021/12/20 09:11:13;;;;;;;21.23;10.55;;;6.70;74.20;;;;;;5131339;27;20482;-76
2021/12/20 09:13:41;;;;;;;22.70;10.68;;;6.70;74.10;;;;;;5132574;27;20031;-74
2021/12/20 09:16:07;;;;;;;20.67;10.35;;;6.70;74.00;;;;;;5132643;27;20102;-76
2021/12/20 09:18:32;;;;;;;19.65;9.45;;;6.80;73.90;;;;;;5133313;27;20106;-76
2021/12/20 09:20:58;;;;;;;18.88;8.73;;;6.80;73.80;;;;;;5112849;27;20049;-76
2021/12/20 09:23:28;;;;;;;21.27;9.10;;;6.80;73.70;;;;;;5114097;27;20031;-76
2021/12/20 09:25:54;;;;;;;20.27;9.27;;;6.90;73.80;;;;;;5131515;27;20023;-76
2021/12/20 09:28:20;;;;;;;18.60;9.55;;;6.90;73.60;;;;;;5117961;27;20052;-76
2021/12/20 09:30:46;;;;;;;19.85;9.43;;;6.90;73.40;;;;;;5114638;28;20478;-77
2021/12/20 09:33:13;;;;;;;24.00;9.68;;;6.90;73.40;;;;;;5114480;28;20031;-76
2021/12/20 09:35:39;;;;;;;21.58;9.27;;;7.00;73.10;;;;;;5126263;27;20019;-76
2021/12/20 09:38:06;;;;;;;21.00;10.27;;;7.00;73.10;;;;;;5116631;27;20139;-76
2021/12/20 09:40:36;;;;;;;17.92;9.32;;;7.00;73.00;;;;;;5113874;27;20459;-76
2021/12/20 09:43:06;;;;;;;24.48;9.50;;;7.00;73.10;;;;;;5116094;27;20019;-77
2021/12/20 09:45:33;;;;;;;16.67;8.88;;;7.00;73.00;;;;;;5134414;27;20029;-76
2021/12/20 09:47:59;;;;;;;19.60;8.75;;;7.00;73.10;;;;;;5134704;27;20034;-76
2021/12/20 09:50:25;;;;;;;17.92;8.30;;;7.00;73.00;;;;;;5134564;27;20364;-76
2021/12/20 09:52:51;;;;;;;20.23;8.30;;;7.00;72.90;;;;;;5134779;27;20444;-76
2021/12/20 09:55:17;;;;;;;27.48;10.05;;;7.00;72.80;;;;;;5115953;27;20048;-76
2021/12/20 09:57:45;;;;;;;19.95;8.05;;;7.00;72.30;;;;;;5134447;27;20045;-76
2021/12/20 10:00:13;;;;;;;16.55;8.55;;;7.00;72.50;;;;;;5115193;27;20080;-75
2021/12/20 10:02:41;;;;;;;16.17;7.75;;;7.00;72.50;;;;;;5116140;27;20023;-76
2021/12/20 10:05:07;;;;;;;23.95;7.70;;;7.00;72.40;;;;;;5115736;27;20107;-75
2021/12/20 10:07:33;;;;;;;18.95;8.30;;;7.00;72.20;;;;;;5134413;27;20075;-76
2021/12/20 10:10:00;;;;;;;18.27;9.23;;;7.00;72.40;;;;;;5134306;27;20026;-76
2021/12/20 10:12:27;;;;;;;19.50;8.93;;;7.10;72.60;;;;;;5134443;27;20027;-76
2021/12/20 10:14:58;;;;;;;18.42;9.43;;;7.10;72.60;;;;;;5129329;27;20387;-75
2021/12/20 10:17:31;;;;;;;16.60;8.48;;;7.20;72.60;;;;;;5126246;27;20035;-76
2021/12/20 10:20:16;;;;;;;23.17;10.82;;;7.30;72.40;;;;;;5115816;27;20367;-76
2021/12/20 10:22:42;;;;;;;33.95;15.90;;;7.30;72.10;;;;;;5134083;27;20023;-76
2021/12/20 10:25:27;;;;;;;16.45;9.35;;;7.40;72.40;;;;;;5115848;27;20035;-76
2021/12/20 10:27:53;;;;;;;66.50;28.95;;;7.40;71.60;;;;;;5133714;27;20032;-76
2021/12/20 10:30:25;;;;;;;193.93;83.07;;;7.50;72.00;;;;;;5115722;27;20421;-76
2021/12/20 10:32:51;;;;;;;89.55;44.50;;;7.60;71.80;;;;;;5133079;27;20031;-75
2021/12/20 10:35:26;;;;;;;131.35;53.88;;;7.60;71.90;;;;;;5133973;27;20023;-76
2021/12/20 10:37:54;;;;;;;68.00;29.52;;;7.70;71.60;;;;;;5133975;27;20027;-76
2021/12/20 10:40:19;;;;;;;34.42;17.20;;;7.70;71.60;;;;;;5115328;27;20462;-76
2021/12/20 10:42:45;;;;;;;87.03;35.42;;;7.80;71.50;;;;;;5115453;27;20035;-76
2021/12/20 10:45:14;;;;;;;53.13;23.02;;;7.80;71.20;;;;;;5133792;27;20027;-76
2021/12/20 10:47:44;;;;;;;181.05;69.72;;;7.80;71.00;;;;;;5114342;27;20031;-76
2021/12/20 10:50:34;;;;;;;64.40;28.98;;;7.90;70.80;;;;;;5128617;27;20033;-76
2021/12/20 10:53:11;;;;;;;190.98;67.63;;;7.90;69.90;;;;;;5113349;27;20016;-75
2021/12/20 10:55:41;;;;;;;152.00;59.50;;;7.90;69.80;;;;;;5123942;27;20031;-76
2021/12/20 10:58:20;;;;;;;80.80;34.45;;;8.00;70.30;;;;;;5133563;27;20027;-77
2021/12/20 11:01:24;;;;;;;82.35;32.33;;;8.00;70.00;;;;;;5133454;27;20023;-77
2021/12/20 11:04:10;;;;;;;349.25;129.38;;;8.00;69.60;;;;;;5133541;28;20544;-76
2021/12/20 11:09:14;;;;;;;82.65;36.65;;;8.00;70.20;;;;;;5136308;27;20071;-76
2021/12/20 11:11:44;;;;;;;38.63;17.88;;;8.10;69.70;;;;;;5119432;27;20024;-76
2021/12/20 11:14:10;;;;;;;23.88;13.55;;;8.10;69.80;;;;;;5119451;27;20019;-76
2021/12/20 11:16:46;;;;;;;15.90;8.32;;;8.10;69.90;;;;;;5137154;27;20027;-76
2021/12/20 11:19:19;;;;;;;50.10;23.13;;;8.20;69.50;;;;;;5137656;27;20023;-76
2021/12/20 11:22:04;;;;;;;21.77;8.60;;;8.20;69.40;;;;;;5119284;27;20059;-76
2021/12/20 11:24:30;;;;;;;134.90;56.53;;;8.30;68.90;;;;;;5137694;27;20367;-76
2021/12/20 11:26:57;;;;;;;154.77;65.43;;;8.40;69.70;;;;;;5127921;27;20040;-75
2021/12/20 11:29:24;;;;;;;40.78;22.38;;;8.50;69.70;;;;;;5116863;28;20050;-75
2021/12/20 11:31:51;;;;;;;149.82;63.97;;;8.60;69.30;;;;;;5123085;27;20032;-75
2021/12/20 11:34:17;;;;;;;54.67;27.40;;;8.80;68.80;;;;;;5116652;28;20030;-75
2021/12/20 11:36:43;;;;;;;46.00;21.02;;;8.80;68.50;;;;;;5116465;28;20042;-75
2021/12/20 11:39:09;;;;;;;51.10;23.70;;;8.90;67.90;;;;;;5118142;27;20460;-75
2021/12/20 11:41:35;;;;;;;34.40;15.60;;;8.80;67.60;;;;;;5118763;27;20027;-76
2021/12/20 11:44:04;;;;;;;44.63;20.00;;;8.90;67.80;;;;;;5137246;27;20012;-76
2021/12/20 11:46:37;;;;;;;26.33;11.77;;;9.00;67.70;;;;;;5120955;27;20131;-76
2021/12/20 11:49:03;;;;;;;14.40;6.35;;;9.00;67.10;;;;;;5116296;28;20020;-76
2021/12/20 11:51:48;;;;;;;12.60;5.57;;;9.00;66.80;;;;;;5106735;27;20076;-76
2021/12/20 11:54:34;;;;;;;13.55;5.63;;;9.00;66.10;;;;;;5136921;27;20075;-76
2021/12/20 11:57:00;;;;;;;23.80;10.75;;;9.00;64.70;;;;;;5118608;27;20084;-76
2021/12/20 11:59:49;;;;;;;61.42;26.98;;;8.90;65.40;;;;;;5117567;27;20023;-75
2021/12/20 12:02:19;;;;;;;19.60;9.48;;;8.80;64.60;;;;;;5118552;27;20105;-76
2021/12/20 12:05:05;;;;;;;35.15;15.10;;;8.80;65.50;;;;;;5122210;27;20028;-75
2021/12/20 12:07:38;;;;;;;16.42;7.75;;;8.70;65.20;;;;;;5116115;28;20027;-75
2021/12/20 12:10:09;;;;;;;27.00;11.32;;;8.60;65.90;;;;;;5097897;28;20022;-76
2021/12/20 12:12:41;;;;;;;17.08;7.35;;;8.60;66.00;;;;;;5116202;28;20031;-76
2021/12/20 12:15:31;;;;;;;30.15;11.38;;;8.50;65.80;;;;;;5123696;27;20110;-76
2021/12/20 12:18:03;;;;;;;12.43;6.22;;;8.50;65.10;;;;;;5135718;27;20103;-75
2021/12/20 12:20:52;;;;;;;12.68;4.55;;;8.40;65.00;;;;;;5129446;27;20015;-76
2021/12/20 12:23:26;;;;;;;8.05;3.75;;;8.40;64.70;;;;;;5097543;28;20028;-76
2021/12/20 12:26:01;;;;;;;11.05;4.57;;;8.30;65.00;;;;;;5097581;28;20126;-76
2021/12/20 12:28:51;;;;;;;9.85;3.88;;;8.30;64.90;;;;;;5132015;27;20104;-75
2021/12/20 12:31:17;;;;;;;6.60;3.20;;;8.20;64.20;;;;;;5136519;27;20101;-75
2021/12/20 12:33:42;;;;;;;7.18;2.88;;;8.20;65.40;;;;;;5136263;27;20541;-76
2021/12/20 12:36:32;;;;;;;6.90;3.17;;;8.20;65.40;;;;;;5136290;27;20425;-76
2021/12/20 12:39:01;;;;;;;13.05;4.75;;;8.10;64.30;;;;;;5117838;27;20463;-76
2021/12/20 12:41:29;;;;;;;11.52;3.55;;;8.10;65.30;;;;;;5097388;28;20024;-76
2021/12/20 12:44:02;;;;;;;11.23;3.70;;;8.00;65.40;;;;;;5126008;27;20030;-75
2021/12/20 12:46:42;;;;;;;10.65;3.72;;;8.00;65.30;;;;;;5136089;27;20031;-76
2021/12/20 12:49:23;;;;;;;7.45;3.20;;;8.00;65.00;;;;;;5117577;27;20061;-76
2021/12/20 12:51:54;;;;;;;16.30;5.25;;;8.00;64.60;;;;;;5136012;27;20029;-76
2021/12/20 12:55:13;;;;;;;15.25;4.43;;;8.00;65.20;;;;;;5135958;27;20050;-76
2021/12/20 12:57:43;;;;;;;10.07;3.10;;;7.90;64.40;;;;;;5049456;28;20064;-76
2021/12/20 13:00:22;;;;;;;11.20;3.25;;;7.90;65.30;;;;;;5082135;28;20024;-76
2021/12/20 13:02:51;;;;;;;10.57;3.22;;;7.90;64.70;;;;;;5115126;28;20030;-75
2021/12/20 13:05:23;;;;;;;7.13;2.80;;;7.90;65.30;;;;;;5134013;27;20101;-76
2021/12/20 13:07:49;;;;;;;7.82;2.22;;;7.80;65.00;;;;;;5135721;27;20038;-76